Time;durP1;ratioP1;P1;durP2;ratioP2;P2;SDS_P1;SDS_P2;PMS_P1;PMS_P2;Temp;Humidity;BMP_temperature;BMP_pressure;BME280_temperature;BME280_humidity;BME280_pressure;Samples;Min_cycle;Max_cycle;Signal;HPM_P1;HPM_P2
2023/05/29 00:01:18;;;;;;;11.40;7.05;;;;;;;13.03;91.70;102203.00;5032004;28;20499;-69
2023/05/29 00:03:44;;;;;;;17.08;6.70;;;;;;;13.00;92.57;102205.66;5029618;28;20044;-69
2023/05/29 00:06:10;;;;;;;14.57;6.45;;;;;;;12.91;92.75;102197.03;5031915;28;20385;-69
2023/05/29 00:08:35;;;;;;;12.90;6.65;;;;;;;12.95;92.29;102209.19;5031754;28;20025;-69
2023/05/29 00:11:01;;;;;;;12.43;6.00;;;;;;;12.88;92.07;102214.53;5031238;28;20029;-69
2023/05/29 00:13:26;;;;;;;17.45;5.72;;;;;;;12.77;92.84;102211.16;5031978;28;20380;-69
2023/05/29 00:15:52;;;;;;;13.30;5.75;;;;;;;12.75;91.85;102223.41;5031675;28;20038;-69
2023/05/29 00:18:17;;;;;;;12.20;5.43;;;;;;;12.71;91.77;102226.91;5031391;28;20512;-69
2023/05/29 00:20:42;;;;;;;13.93;5.18;;;;;;;12.52;91.78;102204.44;5031484;28;20389;-70
2023/05/29 00:23:09;;;;;;;10.82;5.10;;;;;;;12.49;91.27;102220.16;5031136;28;20583;-69
2023/05/29 00:25:35;;;;;;;10.05;4.55;;;;;;;12.50;91.33;102216.69;5032069;28;20025;-69
2023/05/29 00:28:00;;;;;;;16.77;4.57;;;;;;;12.49;91.03;102221.03;5031597;28;20465;-69
2023/05/29 00:30:26;;;;;;;16.65;4.22;;;;;;;12.44;90.56;102227.19;5031445;28;20029;-69
2023/05/29 00:32:52;;;;;;;10.65;4.90;;;;;;;12.33;91.06;102228.16;5031536;28;20049;-69
2023/05/29 00:35:17;;;;;;;11.20;4.30;;;;;;;12.33;90.89;102228.16;5031854;28;20036;-69
2023/05/29 00:37:42;;;;;;;16.23;4.72;;;;;;;12.25;90.81;102232.56;5030602;28;20029;-69
2023/05/29 00:40:09;;;;;;;15.50;5.00;;;;;;;12.16;91.15;102222.19;5031876;28;20029;-69
2023/05/29 00:42:34;;;;;;;18.10;4.68;;;;;;;12.17;91.25;102229.16;5031545;28;20412;-69
2023/05/29 00:44:59;;;;;;;15.50;4.82;;;;;;;12.14;91.61;102237.03;5029702;28;20113;-69
2023/05/29 00:47:25;;;;;;;15.07;4.88;;;;;;;12.16;91.57;102243.09;5031172;28;20025;-69
2023/05/29 00:49:51;;;;;;;12.20;4.40;;;;;;;11.98;91.28;102217.13;5031112;28;20496;-69
2023/05/29 00:52:18;;;;;;;12.80;4.80;;;;;;;12.05;90.16;102243.19;5030742;28;20072;-69
2023/05/29 00:54:45;;;;;;;10.27;4.32;;;;;;;11.98;89.18;102249.34;5020180;28;20075;-69
2023/05/29 00:57:12;;;;;;;11.98;4.13;;;;;;;11.89;88.69;102249.38;5035259;28;20040;-69
2023/05/29 00:59:39;;;;;;;16.10;3.83;;;;;;;11.81;88.07;102246.81;5034147;28;20022;-69
2023/05/29 01:02:05;;;;;;;16.55;5.07;;;;;;;11.78;87.88;102246.81;5035201;28;20112;-69
2023/05/29 01:04:33;;;;;;;16.58;4.50;;;;;;;11.77;87.41;102255.53;5034829;28;20117;-69
2023/05/29 01:07:02;;;;;;;12.57;4.15;;;;;;;11.71;87.21;102248.59;5034025;28;20381;-69
2023/05/29 01:09:29;;;;;;;18.08;4.25;;;;;;;11.70;86.93;102259.03;5035011;28;20029;-69
2023/05/29 01:12:02;;;;;;;16.10;3.58;;;;;;;11.72;86.15;102255.56;5034494;28;20423;-69
2023/05/29 01:14:40;;;;;;;15.02;4.22;;;;;;;11.67;86.17;102256.44;5034305;28;20090;-69
2023/05/29 01:17:37;;;;;;;21.02;4.70;;;;;;;11.67;85.17;102264.28;5026576;28;20476;-69
2023/05/29 01:20:23;;;;;;;10.75;3.60;;;;;;;11.60;85.62;102267.81;5033191;28;20470;-69
2023/05/29 01:22:54;;;;;;;12.50;3.63;;;;;;;11.50;85.86;102264.38;5034700;28;20040;-69
2023/05/29 01:25:35;;;;;;;13.90;3.88;;;;;;;11.46;85.92;102279.19;5034734;28;20029;-69
2023/05/29 01:28:04;;;;;;;17.77;3.78;;;;;;;11.33;86.72;102268.81;5033401;28;20524;-69
2023/05/29 01:30:32;;;;;;;14.48;3.35;;;;;;;11.36;87.11;102267.06;5034688;28;20116;-70
2023/05/29 01:32:58;;;;;;;13.88;3.83;;;;;;;11.33;87.03;102269.69;5034154;28;20477;-69
2023/05/29 01:35:23;;;;;;;21.77;4.80;;;;;;;11.27;86.85;102274.91;5033693;28;20087;-69
2023/05/29 01:37:49;;;;;;;16.30;4.55;;;;;;;11.21;87.37;102272.31;5034375;28;20025;-69
2023/05/29 01:40:14;;;;;;;16.70;3.70;;;;;;;11.20;87.78;102276.69;5034121;28;20104;-69
2023/05/29 01:42:40;;;;;;;12.68;3.65;;;;;;;11.22;88.02;102274.94;5033521;28;20080;-69
2023/05/29 01:45:06;;;;;;;17.00;4.10;;;;;;;11.11;88.11;102258.44;5034412;28;20029;-70
2023/05/29 01:47:32;;;;;;;15.52;4.15;;;;;;;11.08;88.28;102257.56;5033478;28;20036;-69
2023/05/29 01:49:58;;;;;;;19.35;3.67;;;;;;;11.08;88.38;102268.00;5033784;28;20049;-69
2023/05/29 01:52:24;;;;;;;16.45;4.43;;;;;;;11.09;88.39;102273.25;5031956;28;20060;-69
2023/05/29 01:54:50;;;;;;;12.95;3.38;;;;;;;11.04;87.66;102271.50;5033025;28;20021;-69
2023/05/29 01:57:16;;;;;;;12.55;3.25;;;;;;;10.96;88.31;102280.22;5034153;28;20389;-69
2023/05/29 01:59:41;;;;;;;12.73;3.53;;;;;;;10.87;88.36;102263.72;5033863;28;20025;-70
2023/05/29 02:02:08;;;;;;;19.70;3.60;;;;;;;10.87;89.08;102261.13;5033164;28;20033;-69
2023/05/29 02:04:33;;;;;;;20.85;4.43;;;;;;;10.85;89.21;102263.72;5033829;28;20026;-69
2023/05/29 02:06:58;;;;;;;12.68;3.67;;;;;;;10.89;89.03;102262.84;5033052;28;20037;-69
2023/05/29 02:09:25;;;;;;;15.50;3.85;;;;;;;10.92;88.89;102265.47;5033090;28;20029;-69
2023/05/29 02:11:50;;;;;;;13.77;4.15;;;;;;;10.82;89.33;102271.53;5033579;28;20033;-69
2023/05/29 02:14:15;;;;;;;13.68;3.65;;;;;;;10.82;89.72;102270.69;5033640;28;20084;-69
2023/05/29 02:16:40;;;;;;;21.50;4.60;;;;;;;10.70;89.32;102258.53;5032979;28;20108;-69
2023/05/29 02:19:06;;;;;;;12.75;3.63;;;;;;;10.74;89.45;102273.31;5033726;28;20461;-69
2023/05/29 02:21:31;;;;;;;12.65;3.75;;;;;;;10.69;89.67;102275.03;5033408;28;20037;-69
2023/05/29 02:23:57;;;;;;;20.17;3.75;;;;;;;10.62;90.03;102271.56;5032526;28;20112;-69
2023/05/29 02:26:22;;;;;;;15.27;3.85;;;;;;;10.49;89.92;102262.03;5033657;28;20029;-69
2023/05/29 02:28:48;;;;;;;22.38;4.18;;;;;;;10.55;90.56;102278.53;5033456;28;20465;-69
2023/05/29 02:31:13;;;;;;;17.48;4.07;;;;;;;10.53;90.91;102285.50;5032528;28;20128;-69
2023/05/29 02:33:38;;;;;;;17.13;3.90;;;;;;;10.56;90.63;102279.41;5033339;28;20461;-69
2023/05/29 02:36:04;;;;;;;12.30;3.28;;;;;;;10.38;90.06;102249.00;5033196;28;20038;-69
2023/05/29 02:38:29;;;;;;;13.85;3.15;;;;;;;10.51;90.50;102281.16;5032655;28;20376;-69
2023/05/29 02:40:54;;;;;;;15.60;3.60;;;;;;;10.53;90.42;102289.84;5032996;28;20477;-69
2023/05/29 02:43:21;;;;;;;16.75;3.83;;;;;;;10.47;90.58;102288.09;5033050;28;20053;-69
2023/05/29 02:45:46;;;;;;;12.02;3.22;;;;;;;10.43;90.39;102288.97;5032178;28;20029;-69
2023/05/29 02:48:12;;;;;;;15.05;3.33;;;;;;;10.34;90.53;102273.34;5032889;28;20053;-69
2023/05/29 02:50:37;;;;;;;13.13;3.65;;;;;;;10.38;91.09;102295.94;5032884;28;20526;-69
2023/05/29 02:53:02;;;;;;;17.77;3.95;;;;;;;10.39;91.24;102308.06;5032223;28;20025;-69
2023/05/29 02:55:28;;;;;;;12.35;2.90;;;;;;;10.38;91.02;102292.44;5032935;28;20036;-69
2023/05/29 02:57:55;;;;;;;17.85;3.85;;;;;;;10.33;91.08;102297.63;5031836;28;20026;-69
2023/05/29 03:00:20;;;;;;;14.43;3.33;;;;;;;10.31;91.28;102302.88;5032906;28;20080;-69
2023/05/29 03:02:46;;;;;;;12.18;3.28;;;;;;;10.22;91.46;102300.22;5032703;28;20045;-69
2023/05/29 03:05:11;;;;;;;12.23;3.47;;;;;;;10.18;91.75;102300.22;5032152;28;20118;-69
2023/05/29 03:07:37;;;;;;;19.80;4.15;;;;;;;10.17;91.85;102303.66;5032609;28;20098;-69
2023/05/29 03:10:03;;;;;;;16.48;4.45;;;;;;;10.14;91.87;102294.13;5032463;28;20029;-69
2023/05/29 03:12:29;;;;;;;16.67;3.40;;;;;;;10.08;90.96;102296.72;5032015;28;20029;-69
2023/05/29 03:14:56;;;;;;;13.20;2.92;;;;;;;10.12;91.25;102306.28;5032514;28;20097;-69
2023/05/29 03:17:21;;;;;;;15.98;3.80;;;;;;;10.05;92.00;102287.16;5032745;28;20079;-70
2023/05/29 03:19:47;;;;;;;15.02;3.50;;;;;;;10.07;92.72;102300.19;5030708;28;20381;-69
2023/05/29 03:22:12;;;;;;;14.18;3.25;;;;;;;10.01;92.09;102292.38;5032515;28;20036;-69
2023/05/29 03:24:37;;;;;;;14.00;3.60;;;;;;;9.88;93.24;102293.22;5032372;28;20039;-69
2023/05/29 03:27:03;;;;;;;15.57;4.03;;;;;;;9.88;93.79;102307.09;5031767;28;20420;-69
2023/05/29 03:29:30;;;;;;;12.07;3.50;;;;;;;9.85;93.79;102299.28;5032376;28;20045;-69
2023/05/29 03:31:55;;;;;;;16.77;3.85;;;;;;;9.71;94.22;102293.13;5032079;28;20415;-69
2023/05/29 03:34:21;;;;;;;17.13;3.67;;;;;;;9.77;94.46;102299.25;5026159;28;20040;-69
2023/05/29 03:36:46;;;;;;;16.55;3.65;;;;;;;9.81;94.06;102301.00;5031991;28;20033;-69
2023/05/29 03:39:12;;;;;;;15.88;3.33;;;;;;;9.78;94.98;102308.81;5032387;28;20034;-69
2023/05/29 03:41:37;;;;;;;15.77;3.35;;;;;;;9.76;94.93;102315.75;5031423;28;20163;-69
2023/05/29 03:44:02;;;;;;;15.90;3.85;;;;;;;9.77;94.65;102312.25;5032405;28;20040;-69
2023/05/29 03:46:28;;;;;;;15.27;4.00;;;;;;;9.82;95.04;102314.91;5032054;28;20112;-69
2023/05/29 03:48:53;;;;;;;16.63;3.45;;;;;;;9.81;95.05;102324.44;5031152;28;20045;-69
2023/05/29 03:51:18;;;;;;;14.10;3.70;;;;;;;9.82;94.94;102313.16;5031894;28;20428;-69
2023/05/29 03:53:44;;;;;;;17.20;3.55;;;;;;;9.81;95.28;102321.00;5028109;28;20029;-69
2023/05/29 03:56:09;;;;;;;13.70;3.42;;;;;;;9.84;95.57;102323.56;5031700;28;20029;-69
2023/05/29 03:58:36;;;;;;;19.13;3.35;;;;;;;9.82;95.36;102322.72;5032118;28;20033;-69
2023/05/29 04:01:01;;;;;;;17.90;4.03;;;;;;;9.78;95.47;102324.44;5024817;28;20032;-69
2023/05/29 04:03:29;;;;;;;19.15;3.75;;;;;;;9.78;95.93;102324.44;5031980;28;20025;-69
2023/05/29 04:05:55;;;;;;;21.45;4.00;;;;;;;9.74;96.49;102319.19;5031807;28;20401;-69
2023/05/29 04:08:21;;;;;;;24.60;3.80;;;;;;;9.82;96.66;102330.53;5031199;28;20745;-69
2023/05/29 04:10:46;;;;;;;16.13;3.50;;;;;;;9.84;96.82;102323.56;5031721;28;20025;-69
2023/05/29 04:13:11;;;;;;;13.60;3.28;;;;;;;9.67;96.21;102307.88;5032081;28;20033;-69
2023/05/29 04:15:37;;;;;;;14.57;2.90;;;;;;;9.83;96.37;102337.47;5031097;28;20021;-69
2023/05/29 04:18:03;;;;;;;17.85;3.90;;;;;;;9.82;96.71;102340.94;5031807;28;20026;-69
2023/05/29 04:20:28;;;;;;;20.00;4.10;;;;;;;9.83;96.71;102342.69;5031773;28;20030;-69
2023/05/29 04:22:53;;;;;;;14.15;3.67;;;;;;;9.87;96.59;102348.75;5030785;28;20512;-69
2023/05/29 04:25:19;;;;;;;17.23;3.50;;;;;;;9.85;96.77;102346.16;5031978;28;20029;-69
2023/05/29 04:27:48;;;;;;;15.95;3.67;;;;;;;9.85;97.17;102348.78;5031735;28;20021;-69
2023/05/29 04:30:15;;;;;;;16.38;3.88;;;;;;;9.89;96.87;102353.13;5032731;28;20037;-69
2023/05/29 04:32:40;;;;;;;18.30;4.22;;;;;;;9.89;96.95;102347.91;5035335;28;20036;-69
2023/05/29 04:35:06;;;;;;;17.17;3.35;;;;;;;9.83;96.79;102335.72;5035393;28;20100;-69
2023/05/29 04:37:37;;;;;;;19.02;4.13;;;;;;;9.93;96.77;102348.78;5035034;28;20125;-69
2023/05/29 04:40:11;;;;;;;17.02;3.50;;;;;;;9.91;96.37;102354.00;5035354;28;20030;-69
2023/05/29 04:42:37;;;;;;;12.35;3.28;;;;;;;9.91;97.10;102353.13;5035260;28;20473;-69
2023/05/29 04:45:06;;;;;;;16.02;3.65;;;;;;;9.91;96.99;102356.63;5034987;28;20029;-69
2023/05/29 04:47:36;;;;;;;21.55;3.97;;;;;;;9.87;97.06;102357.44;5035172;28;20034;-69
2023/05/29 04:50:01;;;;;;;15.63;3.47;;;;;;;9.88;96.97;102351.41;5034910;28;20108;-69
2023/05/29 04:52:27;;;;;;;18.73;4.03;;;;;;;9.97;96.59;102351.44;5034491;28;20117;-69
2023/05/29 04:54:56;;;;;;;19.63;3.65;;;;;;;9.99;95.61;102352.28;5034956;28;20057;-69
2023/05/29 04:57:21;;;;;;;17.83;4.07;;;;;;;10.09;95.36;102350.56;5034128;28;20497;-69
2023/05/29 04:59:47;;;;;;;18.83;3.50;;;;;;;10.05;95.45;102351.44;5034768;28;20030;-69
2023/05/29 05:02:12;;;;;;;15.30;3.78;;;;;;;10.16;95.08;102351.47;5034824;28;20104;-69
2023/05/29 05:04:37;;;;;;;15.95;3.60;;;;;;;10.20;95.25;102355.81;5034107;28;20036;-69
2023/05/29 05:07:05;;;;;;;18.60;3.40;;;;;;;10.21;94.44;102362.78;5035199;28;20416;-69
2023/05/29 05:09:30;;;;;;;12.98;3.42;;;;;;;10.25;94.07;102348.88;5034992;28;20025;-69
2023/05/29 05:11:56;;;;;;;17.05;3.67;;;;;;;10.30;94.39;102360.22;5033847;28;20156;-69
2023/05/29 05:14:22;;;;;;;21.20;4.22;;;;;;;10.23;93.79;102338.44;5034794;28;20024;-69
2023/05/29 05:16:47;;;;;;;20.80;3.97;;;;;;;10.35;93.44;102360.22;5034350;28;20112;-69
2023/05/29 05:19:12;;;;;;;14.52;3.60;;;;;;;10.45;92.56;102359.38;5034240;28;20072;-69
2023/05/29 05:21:38;;;;;;;16.73;4.00;;;;;;;10.52;92.32;102372.41;5034696;28;20033;-69
2023/05/29 05:24:04;;;;;;;16.85;3.47;;;;;;;10.53;90.68;102368.94;5034850;28;20473;-69
2023/05/29 05:26:29;;;;;;;19.58;3.90;;;;;;;10.51;91.16;102364.59;5033861;28;20449;-69
2023/05/29 05:28:54;;;;;;;17.27;3.88;;;;;;;10.57;91.38;102377.66;5034265;28;20087;-69
2023/05/29 05:31:19;;;;;;;19.02;3.38;;;;;;;10.62;90.70;102367.19;5034346;28;20029;-69
2023/05/29 05:33:45;;;;;;;14.88;3.85;;;;;;;10.64;89.62;102374.16;5033806;28;20033;-69
2023/05/29 05:36:11;;;;;;;15.20;3.72;;;;;;;10.63;90.05;102372.44;5034464;28;20128;-69
2023/05/29 05:38:36;;;;;;;20.45;4.07;;;;;;;10.74;90.03;102390.69;5034588;28;20029;-69
2023/05/29 05:41:01;;;;;;;19.67;4.30;;;;;;;10.81;89.39;102384.59;5032814;28;20033;-69
2023/05/29 05:43:27;;;;;;;18.05;3.38;;;;;;;10.82;89.65;102383.72;5033926;28;20041;-69
2023/05/29 05:45:52;;;;;;;16.20;3.35;;;;;;;10.91;88.60;102388.09;5033943;28;20076;-69
2023/05/29 05:48:17;;;;;;;12.57;3.28;;;;;;;10.96;88.05;102388.97;5033319;28;20052;-69
2023/05/29 05:50:43;;;;;;;16.92;3.85;;;;;;;10.98;88.00;102397.63;5034225;28;20032;-69
2023/05/29 05:53:08;;;;;;;15.95;3.25;;;;;;;11.01;87.37;102380.25;5034307;28;20424;-69
2023/05/29 05:55:33;;;;;;;16.00;4.05;;;;;;;10.96;86.86;102379.38;5033375;28;20108;-69
2023/05/29 05:57:58;;;;;;;19.17;3.25;;;;;;;10.92;86.75;102366.31;5034034;28;20461;-69
2023/05/29 06:00:24;;;;;;;19.90;4.13;;;;;;;10.91;86.83;102369.81;5034026;28;20025;-69
2023/05/29 06:02:49;;;;;;;18.88;4.25;;;;;;;11.00;87.12;102375.91;5033227;28;20424;-69
2023/05/29 06:05:15;;;;;;;19.42;3.88;;;;;;;11.07;87.55;102361.09;5034192;28;20025;-69
2023/05/29 06:07:41;;;;;;;15.60;3.70;;;;;;;11.28;86.42;102381.09;5032810;28;20467;-69
2023/05/29 06:10:06;;;;;;;16.63;4.05;;;;;;;11.32;85.76;102377.59;5033911;28;20105;-69
2023/05/29 06:12:33;;;;;;;15.43;3.47;;;;;;;11.37;84.23;102364.53;5033939;28;20045;-69
2023/05/29 06:14:58;;;;;;;15.48;3.53;;;;;;;11.47;83.77;102382.78;5021720;28;20040;-69
2023/05/29 06:17:23;;;;;;;16.50;3.17;;;;;;;11.51;84.38;102377.53;5033812;28;20025;-69
2023/05/29 06:19:49;;;;;;;14.85;3.35;;;;;;;11.61;83.04;102381.88;5033116;28;20112;-69
2023/05/29 06:22:15;;;;;;;15.73;3.47;;;;;;;11.65;83.32;102381.00;5033070;28;20033;-69
2023/05/29 06:24:40;;;;;;;14.85;3.92;;;;;;;11.73;82.05;102384.44;5033379;28;20021;-69
2023/05/29 06:27:06;;;;;;;13.98;3.40;;;;;;;11.67;81.38;102374.91;5033564;28;20473;-69
2023/05/29 06:29:32;;;;;;;15.95;3.60;;;;;;;11.78;79.78;102389.66;5032843;28;20429;-69
2023/05/29 06:31:57;;;;;;;14.68;3.22;;;;;;;11.71;80.81;102380.97;5033270;28;20029;-69
2023/05/29 06:34:23;;;;;;;18.52;3.58;;;;;;;11.79;79.82;102399.22;5033550;28;20488;-69
2023/05/29 06:36:48;;;;;;;21.50;3.90;;;;;;;11.83;80.29;102406.19;5032292;28;20071;-69
2023/05/29 06:39:14;;;;;;;15.63;3.33;;;;;;;11.99;81.26;102404.41;5033267;28;20029;-69
2023/05/29 06:41:39;;;;;;;10.68;3.10;;;;;;;12.01;78.98;102410.50;5033083;28;20038;-69
2023/05/29 06:44:04;;;;;;;18.90;2.97;;;;;;;11.91;78.12;102389.63;5032233;28;20080;-69
2023/05/29 06:46:30;;;;;;;13.85;3.47;;;;;;;12.12;78.62;102416.53;5032851;28;20047;-69
2023/05/29 06:48:56;;;;;;;11.68;2.88;;;;;;;12.19;76.59;102402.56;5032850;28;20037;-69
2023/05/29 06:51:21;;;;;;;16.90;3.35;;;;;;;12.24;76.46;102408.66;5032398;28;20034;-69
2023/05/29 06:53:46;;;;;;;15.95;3.40;;;;;;;12.33;77.34;102405.13;5032870;28;20029;-69
2023/05/29 06:56:11;;;;;;;16.13;3.10;;;;;;;12.39;76.29;102403.34;5033046;28;20370;-69
2023/05/29 06:58:37;;;;;;;17.80;3.50;;;;;;;12.48;75.25;102405.00;5032161;28;20381;-69
2023/05/29 07:01:02;;;;;;;19.58;3.80;;;;;;;12.55;74.60;102401.47;5032978;28;20029;-69
2023/05/29 07:03:28;;;;;;;12.30;2.95;;;;;;;12.66;75.00;102406.66;5032935;28;20056;-69
2023/05/29 07:05:53;;;;;;;13.18;3.10;;;;;;;12.70;72.74;102403.13;5031797;28;20376;-69
2023/05/29 07:08:18;;;;;;;18.13;3.60;;;;;;;12.75;73.47;102396.13;5032688;28;20029;-69
2023/05/29 07:10:44;;;;;;;15.95;3.20;;;;;;;12.76;72.60;102400.47;5032500;28;20042;-69
2023/05/29 07:13:09;;;;;;;12.35;3.72;;;;;;;12.81;73.34;102408.25;5032276;28;20029;-69
2023/05/29 07:15:34;;;;;;;11.32;2.83;;;;;;;12.82;72.46;102407.41;5032982;28;20037;-69
2023/05/29 07:18:00;;;;;;;13.98;3.13;;;;;;;12.88;72.47;102408.22;5031606;28;20025;-69
2023/05/29 07:20:25;;;;;;;11.55;3.00;;;;;;;12.92;69.92;102413.44;5032408;28;20049;-69
2023/05/29 07:22:51;;;;;;;12.40;3.00;;;;;;;12.98;70.79;102402.88;5031869;28;20071;-69
2023/05/29 07:25:16;;;;;;;13.38;3.40;;;;;;;13.07;70.17;102398.44;5031912;28;20025;-69
2023/05/29 07:27:41;;;;;;;11.90;3.20;;;;;;;13.16;68.76;102402.72;5032217;28;20021;-69
2023/05/29 07:30:07;;;;;;;15.05;2.55;;;;;;;13.19;69.73;102404.47;5032326;28;20035;-69
2023/05/29 07:32:33;;;;;;;16.13;3.15;;;;;;;13.30;69.75;102400.88;5031815;28;20051;-69
2023/05/29 07:34:58;;;;;;;13.40;2.90;;;;;;;13.44;69.42;102410.34;5032113;28;20469;-69
2023/05/29 07:37:24;;;;;;;14.75;3.47;;;;;;;13.46;68.63;102404.19;5032620;28;20075;-69
2023/05/29 07:39:49;;;;;;;14.82;3.28;;;;;;;13.56;68.13;102410.22;5031155;28;20087;-69
2023/05/29 07:42:14;;;;;;;12.70;3.10;;;;;;;13.65;66.40;102411.88;5032362;28;20025;-69
2023/05/29 07:44:41;;;;;;;18.02;3.80;;;;;;;13.65;65.24;102412.72;5031678;28;20023;-69
2023/05/29 07:47:07;;;;;;;12.05;2.90;;;;;;;13.70;66.71;102410.03;5031726;28;20026;-69
2023/05/29 07:49:32;;;;;;;13.85;3.08;;;;;;;13.67;64.84;102420.56;5025566;28;20557;-69
2023/05/29 07:51:57;;;;;;;14.60;2.97;;;;;;;13.73;65.39;102416.16;5031842;28;20163;-69
2023/05/29 07:54:23;;;;;;;18.38;3.53;;;;;;;13.89;65.74;102423.81;5031433;28;20034;-69
2023/05/29 07:56:48;;;;;;;17.67;3.75;;;;;;;14.00;64.57;102425.44;5031930;28;20520;-69
2023/05/29 07:59:14;;;;;;;13.75;2.60;;;;;;;14.00;63.22;102424.56;5032155;28;20350;-69
2023/05/29 08:01:40;;;;;;;16.05;2.78;;;;;;;14.04;62.37;102426.25;5031138;28;20036;-69
2023/05/29 08:04:05;;;;;;;13.43;3.00;;;;;;;14.05;62.59;102434.09;5032058;28;20037;-69
2023/05/29 08:06:32;;;;;;;14.27;3.05;;;;;;;14.07;63.47;102417.50;5035970;28;20033;-69
2023/05/29 08:09:01;;;;;;;12.32;2.88;;;;;;;14.17;61.79;102433.06;5035143;28;20136;-70
2023/05/29 08:11:26;;;;;;;11.57;2.72;;;;;;;14.19;62.03;102436.56;5035937;28;20419;-69
2023/05/29 08:13:52;;;;;;;14.70;2.88;;;;;;;14.22;61.54;102433.00;5035851;28;20029;-69
2023/05/29 08:16:17;;;;;;;15.63;2.85;;;;;;;14.30;60.80;102433.78;5035456;28;20453;-69
2023/05/29 08:18:42;;;;;;;13.68;3.20;;;;;;;14.40;60.30;102429.28;5035773;28;20037;-69
2023/05/29 08:21:09;;;;;;;10.40;2.90;;;;;;;14.49;59.54;102427.38;5035884;28;20461;-69
2023/05/29 08:23:34;;;;;;;12.13;3.10;;;;;;;14.67;59.87;102428.03;5034997;28;20489;-69
2023/05/29 08:26:00;;;;;;;10.95;3.00;;;;;;;14.79;58.78;102426.97;5035218;28;20125;-69
2023/05/29 08:28:26;;;;;;;11.75;2.83;;;;;;;14.85;59.12;102432.13;5035197;28;20029;-69
2023/05/29 08:30:52;;;;;;;10.95;2.80;;;;;;;14.93;58.81;102425.00;5035386;28;20465;-69
2023/05/29 08:33:17;;;;;;;10.48;2.97;;;;;;;15.08;57.86;102437.88;5035534;28;20088;-69
2023/05/29 08:35:43;;;;;;;15.95;4.25;;;;;;;15.12;57.76;102449.19;5034774;28;20037;-69
2023/05/29 08:38:08;;;;;;;12.05;2.70;;;;;;;15.08;57.16;102427.38;5035531;28;20036;-70
2023/05/29 08:40:33;;;;;;;10.52;2.60;;;;;;;15.13;58.29;102441.28;5035454;28;20397;-69
2023/05/29 08:43:14;;;;;;;12.98;2.88;;;;;;;15.17;58.27;102437.72;5034309;28;20034;-69
2023/05/29 08:45:43;;;;;;;11.80;2.88;;;;;;;15.28;57.78;102428.78;5028492;28;20026;-69
2023/05/29 08:48:13;;;;;;;13.30;3.30;;;;;;;15.29;56.50;102427.88;5034008;28;20067;-70
2023/05/29 08:50:47;;;;;;;9.50;2.80;;;;;;;15.39;57.78;102442.59;5034365;28;20034;-69
2023/05/29 08:53:15;;;;;;;11.50;3.17;;;;;;;15.39;56.42;102438.19;5034735;28;20147;-69
2023/05/29 08:55:40;;;;;;;15.98;3.40;;;;;;;15.51;57.88;102436.25;5035073;28;20031;-69
2023/05/29 08:58:06;;;;;;;15.55;3.53;;;;;;;15.61;56.80;102440.44;5034773;28;20026;-69
2023/05/29 09:00:32;;;;;;;14.52;3.20;;;;;;;15.65;56.65;102436.84;5035151;28;20029;-70
2023/05/29 09:02:59;;;;;;;10.25;2.90;;;;;;;15.82;57.24;102444.41;5035085;28;20033;-69
2023/05/29 09:05:27;;;;;;;13.50;3.00;;;;;;;15.98;55.63;102442.34;5034211;28;20025;-70
2023/05/29 09:07:53;;;;;;;8.98;2.85;;;;;;;16.27;57.26;102458.38;5034754;28;20101;-70
2023/05/29 09:10:19;;;;;;;14.00;3.10;;;;;;;16.45;54.90;102454.50;5034996;28;20480;-70
2023/05/29 09:12:44;;;;;;;20.77;3.50;;;;;;;16.39;53.25;102438.84;5034039;28;20037;-70
2023/05/29 09:15:20;;;;;;;14.15;3.15;;;;;;;16.39;54.43;102450.25;5035105;28;20028;-69
2023/05/29 09:17:57;;;;;;;17.25;3.05;;;;;;;16.43;53.20;102447.53;5032439;28;20061;-70
2023/05/29 09:20:23;;;;;;;11.40;2.83;;;;;;;16.27;52.31;102455.75;5034939;28;20120;-69
2023/05/29 09:22:54;;;;;;;14.30;2.90;;;;;;;16.21;53.65;102458.53;5034527;28;20040;-70
2023/05/29 09:25:22;;;;;;;10.45;3.30;;;;;;;16.31;53.15;102456.56;5034102;28;20029;-70
2023/05/29 09:27:51;;;;;;;10.30;2.72;;;;;;;16.44;53.24;102457.16;5034391;28;20063;-69
2023/05/29 09:30:42;;;;;;;11.95;3.03;;;;;;;16.54;51.96;102450.78;5034743;28;20022;-70
2023/05/29 09:33:09;;;;;;;9.30;2.88;;;;;;;16.73;51.79;102441.56;5033536;28;20029;-69
2023/05/29 09:35:39;;;;;;;12.57;3.40;;;;;;;16.73;50.71;102441.56;5034675;28;20045;-69
2023/05/29 09:38:06;;;;;;;11.52;2.67;;;;;;;16.99;51.68;102437.47;5034609;28;20013;-70
2023/05/29 09:40:32;;;;;;;11.55;2.53;;;;;;;17.26;51.18;102430.59;5033729;28;20026;-69
2023/05/29 09:43:04;;;;;;;10.38;2.80;;;;;;;17.33;49.72;102437.47;5033853;28;20385;-75
2023/05/29 09:45:30;;;;;;;7.85;2.95;;;;;;;17.39;49.96;102429.38;5022443;28;20112;-70
2023/05/29 09:47:55;;;;;;;11.40;2.78;;;;;;;17.54;49.35;102436.88;5032923;28;20021;-70
2023/05/29 09:50:26;;;;;;;11.45;2.78;;;;;;;17.66;48.67;102424.28;5034225;28;20037;-69
2023/05/29 09:52:53;;;;;;;10.90;3.03;;;;;;;17.67;48.07;102434.78;5033166;28;20389;-69
2023/05/29 09:55:23;;;;;;;12.05;3.50;;;;;;;17.78;47.62;102439.78;5034043;28;20052;-69
2023/05/29 09:57:49;;;;;;;10.68;3.05;;;;;;;17.92;48.43;102429.72;5033796;28;20049;-69
2023/05/29 10:00:17;;;;;;;10.70;2.88;;;;;;;18.11;48.01;102437.06;5033547;28;20120;-70
2023/05/29 10:02:42;;;;;;;11.98;2.95;;;;;;;18.25;46.23;102430.47;5033715;28;20060;-69
2023/05/29 10:05:09;;;;;;;10.73;2.92;;;;;;;18.25;47.26;102438.41;5034100;28;20076;-70
2023/05/29 10:07:36;;;;;;;10.10;2.92;;;;;;;18.18;47.12;102433.31;5033203;28;20056;-70
2023/05/29 10:10:07;;;;;;;8.43;2.85;;;;;;;18.29;48.78;102435.66;5033866;28;20047;-69
2023/05/29 10:12:36;;;;;;;8.68;2.60;;;;;;;18.45;48.83;102427.22;5033467;28;20124;-69
2023/05/29 10:15:05;;;;;;;11.35;2.97;;;;;;;18.42;46.05;102432.59;5032947;28;20026;-69
2023/05/29 10:17:34;;;;;;;10.90;2.70;;;;;;;18.59;47.37;102428.56;5033732;28;20029;-69
2023/05/29 10:20:06;;;;;;;11.43;3.08;;;;;;;18.71;47.65;102433.44;5033433;28;20030;-70
2023/05/29 10:22:31;;;;;;;9.00;2.63;;;;;;;18.82;46.68;102423.41;5033017;28;20427;-70
2023/05/29 10:24:57;;;;;;;12.18;3.35;;;;;;;18.57;45.02;102388.97;5033237;28;20029;-70
2023/05/29 10:27:23;;;;;;;14.23;3.33;;;;;;;18.71;45.67;102418.47;5033038;28;20021;-70
2023/05/29 10:30:12;;;;;;;9.52;3.10;;;;;;;18.77;46.37;102424.47;5032522;28;20037;-70
2023/05/29 10:32:59;;;;;;;10.98;3.00;;;;;;;18.85;47.09;102419.81;5033237;28;20025;-70
2023/05/29 10:35:30;;;;;;;11.75;3.20;;;;;;;19.06;46.72;102408.50;5025601;28;20063;-69
2023/05/29 10:38:10;;;;;;;9.43;3.22;;;;;;;19.20;46.12;102409.84;5033013;28;20064;-69
2023/05/29 10:40:35;;;;;;;8.63;2.90;;;;;;;19.22;45.56;102400.91;5033409;28;20117;-70
2023/05/29 10:43:00;;;;;;;13.13;2.88;;;;;;;19.40;45.63;102412.63;5032220;28;20120;-70
2023/05/29 10:45:28;;;;;;;11.15;3.03;;;;;;;19.66;44.88;102424.97;5033002;28;20108;-70
2023/05/29 10:47:54;;;;;;;10.40;2.80;;;;;;;19.81;43.43;102420.88;5032536;28;20476;-70
2023/05/29 10:50:48;;;;;;;11.48;2.80;;;;;;;19.99;43.24;102419.34;5032097;28;20060;-70
2023/05/29 10:53:22;;;;;;;11.15;2.85;;;;;;;19.96;44.01;102409.72;5033288;28;20037;-69
2023/05/29 10:55:47;;;;;;;12.25;3.60;;;;;;;20.09;43.54;102413.63;5032912;28;20061;-69
2023/05/29 10:58:18;;;;;;;12.10;3.17;;;;;;;20.21;43.80;102414.06;5032161;28;20518;-70
2023/05/29 11:00:46;;;;;;;14.80;3.13;;;;;;;20.42;44.03;102415.88;5030459;28;20037;-70
2023/05/29 11:03:14;;;;;;;9.77;3.20;;;;;;;20.53;41.77;102397.78;5032318;28;20029;-70
2023/05/29 11:06:07;;;;;;;11.65;2.83;;;;;;;20.83;42.22;102415.13;5032422;28;20026;-69
2023/05/29 11:08:46;;;;;;;7.47;2.63;;;;;;;20.84;40.41;102407.13;5032743;28;20029;-70
2023/05/29 11:11:28;;;;;;;5.78;2.67;;;;;;;20.93;40.99;102398.78;5032146;28;20332;-70
2023/05/29 11:14:01;;;;;;;8.45;2.47;;;;;;;21.14;42.45;102393.50;5032595;28;20038;-70
2023/05/29 11:16:29;;;;;;;;;;;;;;;21.35;41.94;102400.53;5029114;28;20033;-70
2023/05/29 11:18:56;;;;;;;7.38;2.88;;;;;;;21.27;41.27;102397.34;5031538;28;19967;-70